createdAt,value
2023-03-18T00:00:03.398Z,0.00
2023-03-18T00:05:05.511Z,0.00
2023-03-18T00:10:04.725Z,0.00
2023-03-18T00:15:05.989Z,0.00
2023-03-18T00:20:07.156Z,0.00
2023-03-18T00:25:08.345Z,0.00
2023-03-18T00:30:09.600Z,0.00
2023-03-18T00:35:10.922Z,0.00
2023-03-18T00:40:12.172Z,0.00
2023-03-18T00:45:13.429Z,0.00
2023-03-18T00:50:14.740Z,0.00
2023-03-18T00:55:16.023Z,0.00
2023-03-18T01:00:17.232Z,0.00
2023-03-18T01:05:18.472Z,0.00
2023-03-18T01:10:19.699Z,0.00
2023-03-18T01:15:21.456Z,0.00
2023-03-18T01:20:20.672Z,0.00
2023-03-18T01:25:21.976Z,0.00
2023-03-18T01:30:23.146Z,0.00
2023-03-18T01:35:24.323Z,0.00
2023-03-18T01:40:26.309Z,0.00
2023-03-18T01:45:24.613Z,0.00
2023-03-18T01:50:25.857Z,0.00
2023-03-18T01:55:27.038Z,0.00
2023-03-18T02:00:28.289Z,0.00
2023-03-18T02:05:30.665Z,0.00
2023-03-18T02:10:30.016Z,0.00
2023-03-18T02:15:31.315Z,0.00
2023-03-18T02:20:32.933Z,0.00
2023-03-18T02:25:32.264Z,0.00
2023-03-18T02:30:33.771Z,0.00
2023-03-18T02:35:33.269Z,0.00
2023-03-18T02:40:34.797Z,0.00
2023-03-18T02:45:38.006Z,0.00
2023-03-18T02:50:35.244Z,0.00
2023-03-18T02:55:36.417Z,0.00
2023-03-18T03:00:37.690Z,0.00
2023-03-18T03:05:38.855Z,0.00
2023-03-18T03:10:40.085Z,0.00
2023-03-18T03:15:41.318Z,0.00
2023-03-18T03:20:42.544Z,0.00
2023-03-18T03:25:43.899Z,0.00
2023-03-18T03:30:45.095Z,0.00
2023-03-18T03:35:46.281Z,0.00
2023-03-18T03:40:48.476Z,0.00
2023-03-18T03:45:47.686Z,0.00
2023-03-18T03:50:48.964Z,0.00
2023-03-18T03:55:50.258Z,0.00
2023-03-18T04:00:51.437Z,0.00
2023-03-18T04:05:52.644Z,0.00
2023-03-18T04:10:54.854Z,0.00
2023-03-18T04:15:54.189Z,0.00
2023-03-18T04:20:55.911Z,0.00
2023-03-18T04:25:55.176Z,0.00
2023-03-18T04:30:56.382Z,0.00
2023-03-18T04:35:57.667Z,0.00
2023-03-18T04:40:58.871Z,0.00
2023-03-18T04:46:00.073Z,0.00
2023-03-18T04:51:01.304Z,0.00
2023-03-18T04:56:02.537Z,0.00
2023-03-18T05:01:04.956Z,4.00
2023-03-18T05:06:04.276Z,4.00
2023-03-18T05:11:05.580Z,8.00
2023-03-18T05:16:10.796Z,16.00
2023-03-18T05:21:07.982Z,40.00
2023-03-18T05:26:08.154Z,76.00
2023-03-18T05:31:09.422Z,132.00
2023-03-18T05:36:10.721Z,184.00
2023-03-18T05:41:12.929Z,284.00
2023-03-18T05:46:12.195Z,428.00
2023-03-18T05:51:13.458Z,624.00
2023-03-18T05:56:14.800Z,816.00
2023-03-18T06:01:16.883Z,1012.00
2023-03-18T06:06:16.114Z,1208.00
2023-03-18T06:11:17.323Z,1412.00
2023-03-18T06:16:18.538Z,1636.00
2023-03-18T06:21:19.772Z,1912.00
2023-03-18T06:26:21.018Z,2188.00
2023-03-18T06:31:22.392Z,2540.00
2023-03-18T06:36:23.701Z,2516.00
2023-03-18T06:41:24.964Z,2468.00
2023-03-18T06:46:26.199Z,2528.00
2023-03-18T06:51:27.489Z,2984.00
2023-03-18T06:56:28.737Z,3480.00
2023-03-18T07:01:29.991Z,3868.00
2023-03-18T07:06:32.160Z,3832.00
2023-03-18T07:11:36.085Z,4056.00
2023-03-18T07:16:31.337Z,4196.00
2023-03-18T07:21:32.576Z,3296.00
2023-03-18T07:26:33.108Z,3692.00
2023-03-18T07:31:34.430Z,4300.00
2023-03-18T07:36:35.678Z,4712.00
2023-03-18T07:41:37.995Z,4752.00
2023-03-18T07:46:38.388Z,4816.00
2023-03-18T07:51:37.660Z,4832.00
2023-03-18T07:56:38.835Z,4820.00
2023-03-18T08:01:40.048Z,4832.00
2023-03-18T08:06:41.622Z,4704.00
2023-03-18T08:11:40.886Z,4836.00
2023-03-18T08:16:49.680Z,4880.00
2023-03-18T08:21:56.911Z,4912.00
2023-03-18T08:26:44.219Z,4460.00
2023-03-18T08:31:45.516Z,4672.00
2023-03-18T08:36:46.757Z,4984.00
2023-03-18T08:41:48.043Z,5060.00
2023-03-18T08:46:49.304Z,5068.00
2023-03-18T08:51:50.472Z,5104.00
2023-03-18T08:56:51.717Z,5080.00
2023-03-18T09:01:53.109Z,5096.00
2023-03-18T09:06:54.314Z,5104.00
2023-03-18T09:11:55.540Z,5116.00
2023-03-18T09:16:56.876Z,5116.00
2023-03-18T09:21:58.536Z,5148.00
2023-03-18T09:26:56.736Z,5164.00
2023-03-18T09:31:57.955Z,5200.00
2023-03-18T09:36:59.151Z,5228.00
2023-03-18T09:42:00.376Z,5224.00
2023-03-18T09:47:01.780Z,5240.00
2023-03-18T09:52:03.030Z,5252.00
2023-03-18T09:57:05.180Z,5272.00
2023-03-18T10:02:04.424Z,5300.00
2023-03-18T10:07:05.683Z,5316.00
2023-03-18T10:12:06.881Z,5336.00
2023-03-18T10:17:08.136Z,5368.00
2023-03-18T10:22:09.394Z,5392.00
2023-03-18T10:27:10.654Z,5424.00
2023-03-18T10:32:11.938Z,5444.00
2023-03-18T10:37:13.105Z,5212.00
2023-03-18T10:42:14.307Z,5200.00
2023-03-18T10:47:15.749Z,5252.00
2023-03-18T10:52:15.381Z,5260.00
2023-03-18T10:57:14.601Z,5280.00
2023-03-18T11:02:15.888Z,5292.00
2023-03-18T11:07:17.104Z,5296.00
2023-03-18T11:12:19.401Z,5284.00
2023-03-18T11:17:18.826Z,5296.00
2023-03-18T11:22:20.496Z,5316.00
2023-03-18T11:27:20.379Z,5316.00
2023-03-18T11:32:21.593Z,5340.00
2023-03-18T11:37:25.790Z,5356.00
2023-03-18T11:42:23.024Z,5368.00
2023-03-18T11:47:24.216Z,5396.00
2023-03-18T11:52:25.358Z,5436.00
2023-03-18T11:57:26.515Z,5384.00
2023-03-18T12:02:27.891Z,5240.00
2023-03-18T12:07:29.061Z,5660.00
2023-03-18T12:12:30.202Z,5416.00
2023-03-18T12:17:31.377Z,5428.00
2023-03-18T12:22:32.539Z,6020.00
2023-03-18T12:27:33.773Z,6152.00
2023-03-18T12:32:34.126Z,6096.00
2023-03-18T12:37:35.300Z,6000.00
2023-03-18T12:42:36.438Z,5976.00
2023-03-18T12:47:37.580Z,5796.00
2023-03-18T12:52:38.756Z,6108.00
2023-03-18T12:57:39.904Z,6028.00
2023-03-18T13:02:41.102Z,6364.00
2023-03-18T13:07:40.315Z,6284.00
2023-03-18T13:12:43.483Z,6244.00
2023-03-18T13:17:44.604Z,6440.00
2023-03-18T13:22:45.772Z,6048.00
2023-03-18T13:27:46.927Z,5812.00
2023-03-18T13:32:49.085Z,6204.00
2023-03-18T13:37:49.239Z,5552.00
2023-03-18T13:42:48.371Z,5580.00
2023-03-18T13:47:49.514Z,5584.00
2023-03-18T13:52:50.694Z,5860.00
2023-03-18T13:57:51.873Z,5740.00
2023-03-18T14:02:54.065Z,5500.00
2023-03-18T14:07:53.256Z,5452.00
2023-03-18T14:12:54.437Z,5688.00
2023-03-18T14:17:54.586Z,5748.00
2023-03-18T14:22:58.004Z,5632.00
2023-03-18T14:27:57.191Z,5400.00
2023-03-18T14:32:59.429Z,5300.00
2023-03-18T14:37:59.747Z,5284.00
2023-03-18T14:42:58.999Z,5384.00
2023-03-18T14:48:00.332Z,5804.00
2023-03-18T14:53:02.548Z,6056.00
2023-03-18T14:58:01.811Z,6156.00
2023-03-18T15:03:04.020Z,5924.00
2023-03-18T15:08:03.238Z,4932.00
2023-03-18T15:13:04.423Z,4072.00
2023-03-18T15:18:11.183Z,3652.00
2023-03-18T15:23:06.341Z,3288.00
2023-03-18T15:28:07.632Z,3500.00
2023-03-18T15:33:08.817Z,3524.00
2023-03-18T15:38:10.129Z,3652.00
2023-03-18T15:43:11.351Z,4220.00
2023-03-18T15:48:12.490Z,3788.00
2023-03-18T15:53:13.692Z,3460.00
2023-03-18T15:58:14.837Z,2984.00
2023-03-18T16:03:16.624Z,2436.00
2023-03-18T16:08:15.815Z,2232.00
2023-03-18T16:13:16.980Z,2116.00
2023-03-18T16:18:18.130Z,1952.00
2023-03-18T16:23:19.295Z,1748.00
2023-03-18T16:28:20.439Z,1648.00
2023-03-18T16:33:21.614Z,1488.00
2023-03-18T16:38:23.038Z,1284.00
2023-03-18T16:43:24.192Z,1124.00
2023-03-18T16:48:25.393Z,980.00
2023-03-18T16:53:26.599Z,860.00
2023-03-18T16:58:27.880Z,744.00
2023-03-18T17:03:29.038Z,688.00
2023-03-18T17:08:30.239Z,556.00
2023-03-18T17:13:31.694Z,376.00
2023-03-18T17:18:31.149Z,256.00
2023-03-18T17:23:31.407Z,188.00
2023-03-18T17:28:30.863Z,124.00
2023-03-18T17:33:30.087Z,76.00
2023-03-18T17:38:32.807Z,40.00
2023-03-18T17:43:32.249Z,16.00
2023-03-18T17:48:33.706Z,4.00
2023-03-18T17:53:33.012Z,4.00
2023-03-18T17:58:34.187Z,4.00
2023-03-18T18:03:35.401Z,0.00
2023-03-18T18:08:37.394Z,0.00
2023-03-18T18:13:36.727Z,0.00
2023-03-18T18:18:38.043Z,0.00
2023-03-18T18:23:39.440Z,0.00
2023-03-18T18:28:41.847Z,0.00
2023-03-18T18:33:41.798Z,0.00
2023-03-18T18:38:41.221Z,0.00
2023-03-18T18:43:41.704Z,0.00
2023-03-18T18:48:44.074Z,0.00
2023-03-18T18:53:43.696Z,0.00
2023-03-18T18:58:43.529Z,0.00
2023-03-18T19:03:43.355Z,0.00
2023-03-18T19:08:57.148Z,0.00
2023-03-18T19:13:44.645Z,0.00
2023-03-18T19:18:42.476Z,0.00
2023-03-18T19:23:41.878Z,0.00
2023-03-18T19:28:57.021Z,0.00
2023-03-18T19:33:47.805Z,0.00
2023-03-18T19:38:43.304Z,0.00
2023-03-18T19:43:42.804Z,0.00
2023-03-18T19:48:42.319Z,0.00
2023-03-18T19:53:43.200Z,0.00
2023-03-18T19:58:42.736Z,0.00
2023-03-18T20:03:46.620Z,0.00
2023-03-18T20:08:42.213Z,0.00
2023-03-18T20:13:41.725Z,0.00
2023-03-18T20:18:45.851Z,0.00
2023-03-18T20:23:41.379Z,0.00
2023-03-18T20:28:46.236Z,0.00
2023-03-18T20:33:46.808Z,0.00
2023-03-18T20:38:47.366Z,0.00
2023-03-18T20:43:43.231Z,0.00
2023-03-18T20:48:42.732Z,0.00
2023-03-18T20:53:42.278Z,0.00
2023-03-18T20:58:42.557Z,0.00
2023-03-18T21:03:41.956Z,0.00
2023-03-18T21:08:41.222Z,0.00
2023-03-18T21:13:42.377Z,0.00
2023-03-18T21:18:47.353Z,0.00
2023-03-18T21:23:44.612Z,0.00
2023-03-18T21:28:45.762Z,0.00
2023-03-18T21:33:46.969Z,0.00
2023-03-18T21:38:48.164Z,0.00
2023-03-18T21:43:49.341Z,0.00
2023-03-18T21:48:51.269Z,0.00
2023-03-18T21:53:50.580Z,0.00
2023-03-18T21:58:51.968Z,0.00
2023-03-18T22:03:51.249Z,0.00
2023-03-18T22:08:52.426Z,0.00
2023-03-18T22:13:53.573Z,0.00
2023-03-18T22:18:54.814Z,0.00
2023-03-18T22:23:56.186Z,0.00
2023-03-18T22:28:55.565Z,0.00
2023-03-18T22:33:56.726Z,0.00
2023-03-18T22:38:57.897Z,0.00
2023-03-18T22:43:59.113Z,0.00
2023-03-18T22:49:01.279Z,0.00
2023-03-18T22:54:00.568Z,0.00
2023-03-18T22:59:01.730Z,0.00
2023-03-18T23:04:02.910Z,0.00
2023-03-18T23:09:05.099Z,0.00
2023-03-18T23:14:05.346Z,0.00
2023-03-18T23:19:03.470Z,0.00
2023-03-18T23:24:04.749Z,0.00
2023-03-18T23:29:05.917Z,0.00
2023-03-18T23:34:07.081Z,0.00
2023-03-18T23:39:09.169Z,0.00
2023-03-18T23:44:08.308Z,0.00
2023-03-18T23:49:09.496Z,0.00
2023-03-18T23:54:10.154Z,0.00
2023-03-18T23:59:11.296Z,0.00
